Time;durP1;ratioP1;P1;durP2;ratioP2;P2;SDS_P1;SDS_P2;PMS_P1;PMS_P2;Temp;Humidity;BMP_temperature;BMP_pressure;BME280_temperature;BME280_humidity;BME280_pressure;Samples;Min_cycle;Max_cycle;Signal;HPM_P1;HPM_P2
2020/12/15 00:01:26;;;;;;;145.10;59.70;;;;;;;;;;5070610;28;20025;-53
2020/12/15 00:03:52;;;;;;;123.80;55.55;;;;;;;;;;5052189;28;20048;-54
2020/12/15 00:06:19;;;;;;;119.07;52.80;;;;;;;;;;5071447;28;20051;-53
2020/12/15 00:08:45;;;;;;;94.75;43.75;;;;;;;;;;5071488;28;20124;-52
2020/12/15 00:11:17;;;;;;;74.65;36.83;;;;;;;;;;5076003;28;20025;-52
2020/12/15 00:13:43;;;;;;;;;;;;;;;;;;5071790;28;20086;-54
2020/12/15 00:16:09;;;;;;;57.15;30.55;;;;;;;;;;5070735;28;19913;-51
2020/12/15 00:18:35;;;;;;;61.38;31.38;;;;;;;;;;5071167;28;20016;-54
2020/12/15 00:21:01;;;;;;;55.38;30.27;;;;;;;;;;5070880;28;20430;-52
2020/12/15 00:23:27;;;;;;;58.92;31.40;;;;;;;;;;5070175;28;20476;-51
2020/12/15 00:25:53;;;;;;;76.68;40.88;;;;;;;;;;5072477;28;20447;-53
2020/12/15 00:28:19;;;;;;;100.47;51.13;;;;;;;;;;5075148;28;20476;-55
2020/12/15 00:30:45;;;;;;;99.05;51.28;;;;;;;;;;5075109;28;20031;-54
2020/12/15 00:33:11;;;;;;;89.47;46.28;;;;;;;;;;5074817;28;20032;-52
2020/12/15 00:35:37;;;;;;;69.13;37.28;;;;;;;;;;5075010;28;20024;-52
2020/12/15 00:38:03;;;;;;;62.55;34.50;;;;;;;;;;5074481;28;20185;-52
2020/12/15 00:40:29;;;;;;;58.90;31.98;;;;;;;;;;5085813;28;20036;-54
2020/12/15 00:42:55;;;;;;;59.20;29.45;;;;;;;;;;5073585;28;20029;-52
2020/12/15 00:45:21;;;;;;;52.65;29.17;;;;;;;;;;5074628;28;20028;-52
2020/12/15 00:47:47;;;;;;;55.00;29.77;;;;;;;;;;5074663;28;20016;-52
2020/12/15 00:50:13;;;;;;;60.20;32.90;;;;;;;;;;5074826;28;20028;-52
2020/12/15 00:52:39;;;;;;;61.63;32.60;;;;;;;;;;5076048;28;20055;-53
2020/12/15 00:55:06;;;;;;;61.28;33.55;;;;;;;;;;5088529;28;20024;-52
2020/12/15 00:57:32;;;;;;;69.88;38.42;;;;;;;;;;5090872;28;20020;-53
2020/12/15 00:59:58;;;;;;;60.10;33.15;;;;;;;;;;5076594;28;20532;-55
2020/12/15 01:02:24;;;;;;;60.67;32.88;;;;;;;;;;5080622;28;20433;-55
2020/12/15 01:04:50;;;;;;;56.95;32.70;;;;;;;;;;5094135;28;20040;-52
2020/12/15 01:07:16;;;;;;;57.10;31.20;;;;;;;;;;5093860;28;20467;-54
2020/12/15 01:09:42;;;;;;;63.97;35.72;;;;;;;;;;5094112;28;20036;-52
2020/12/15 01:12:10;;;;;;;74.57;38.33;;;;;;;;;;5093855;28;20548;-52
2020/12/15 01:14:36;;;;;;;68.55;38.10;;;;;;;;;;5094053;28;20026;-52
2020/12/15 01:17:02;;;;;;;66.25;36.30;;;;;;;;;;5078105;28;20044;-53
2020/12/15 01:19:28;;;;;;;60.08;33.40;;;;;;;;;;5076602;28;20012;-52
2020/12/15 01:21:54;;;;;;;57.83;30.75;;;;;;;;;;5075663;28;20028;-54
2020/12/15 01:24:21;;;;;;;56.92;31.55;;;;;;;;;;5084750;28;20040;-51
2020/12/15 01:26:47;;;;;;;63.30;33.20;;;;;;;;;;5088089;28;20020;-55
2020/12/15 01:29:13;;;;;;;63.30;33.80;;;;;;;;;;5083163;28;20028;-54
2020/12/15 01:31:39;;;;;;;61.83;32.63;;;;;;;;;;5083429;28;20124;-54
2020/12/15 01:34:05;;;;;;;61.22;32.88;;;;;;;;;;5081774;28;20392;-54
2020/12/15 01:36:32;;;;;;;63.95;33.78;;;;;;;;;;5084645;28;20031;-54
2020/12/15 01:38:58;;;;;;;64.68;35.13;;;;;;;;;;5079762;28;20024;-54
2020/12/15 01:41:25;;;;;;;60.72;34.35;;;;;;;;;;5085742;28;20032;-54
2020/12/15 01:43:52;;;;;;;69.93;37.33;;;;;;;;;;5080316;28;20035;-54
2020/12/15 01:46:18;;;;;;;67.65;36.72;;;;;;;;;;5083534;28;20020;-52
2020/12/15 01:48:44;;;;;;;68.50;37.00;;;;;;;;;;5082084;28;20031;-52
2020/12/15 01:51:10;;;;;;;65.90;34.88;;;;;;;;;;5080993;28;20032;-51
2020/12/15 01:53:36;;;;;;;65.35;34.65;;;;;;;;;;5082826;28;20396;-53
2020/12/15 01:56:03;;;;;;;75.40;38.80;;;;;;;;;;5092470;28;20056;-54
2020/12/15 01:58:29;;;;;;;70.90;38.42;;;;;;;;;;5090899;28;20059;-53
2020/12/15 02:00:55;;;;;;;66.07;37.20;;;;;;;;;;5092927;28;20026;-54
2020/12/15 02:03:21;;;;;;;65.20;36.13;;;;;;;;;;5092657;28;20036;-54
2020/12/15 02:05:47;;;;;;;62.50;33.65;;;;;;;;;;5091788;28;20028;-53
2020/12/15 02:08:13;;;;;;;62.80;35.63;;;;;;;;;;5091214;28;20035;-53
2020/12/15 02:10:39;;;;;;;63.47;35.50;;;;;;;;;;5092246;28;20107;-54
2020/12/15 02:13:05;;;;;;;65.55;35.60;;;;;;;;;;5089310;28;20033;-52
2020/12/15 02:15:31;;;;;;;65.85;36.67;;;;;;;;;;5078579;28;20013;-51
2020/12/15 02:17:57;;;;;;;67.28;37.72;;;;;;;;;;5073771;28;20112;-51
2020/12/15 02:20:23;;;;;;;67.97;37.08;;;;;;;;;;5072429;28;20031;-52
2020/12/15 02:22:49;;;;;;;71.60;38.20;;;;;;;;;;5072754;28;20035;-52
2020/12/15 02:25:15;;;;;;;67.57;36.00;;;;;;;;;;5073142;28;20025;-50
2020/12/15 02:27:42;;;;;;;73.63;37.40;;;;;;;;;;5072477;28;20077;-50
2020/12/15 02:30:08;;;;;;;66.63;38.20;;;;;;;;;;5072475;28;20017;-50
2020/12/15 02:32:35;;;;;;;67.70;37.65;;;;;;;;;;5073761;28;20020;-52
2020/12/15 02:35:02;;;;;;;67.88;38.35;;;;;;;;;;5073357;28;20031;-51
2020/12/15 02:37:28;;;;;;;67.68;37.55;;;;;;;;;;5073714;28;20020;-52
2020/12/15 02:40:01;;;;;;;72.38;38.47;;;;;;;;;;5072497;28;20474;-52
2020/12/15 02:42:30;;;;;;;69.57;37.40;;;;;;;;;;5073419;28;20028;-50
2020/12/15 02:44:57;;;;;;;64.32;36.40;;;;;;;;;;5073721;28;20032;-52
2020/12/15 02:47:24;;;;;;;67.88;35.45;;;;;;;;;;5082011;28;20024;-52
2020/12/15 02:49:50;;;;;;;61.78;35.17;;;;;;;;;;5091270;28;20096;-53
2020/12/15 02:52:16;;;;;;;55.83;31.52;;;;;;;;;;5091635;28;20028;-51
2020/12/15 02:54:42;;;;;;;57.22;30.73;;;;;;;;;;5091296;28;20066;-49
2020/12/15 02:57:09;;;;;;;57.63;32.17;;;;;;;;;;5092143;28;20056;-52
2020/12/15 02:59:35;;;;;;;60.88;32.85;;;;;;;;;;5090506;28;20016;-52
2020/12/15 03:02:01;;;;;;;62.03;33.75;;;;;;;;;;5091993;28;20043;-51
2020/12/15 03:04:27;;;;;;;64.43;33.42;;;;;;;;;;5091624;28;20476;-52
2020/12/15 03:06:53;;;;;;;59.20;31.75;;;;;;;;;;5092177;28;20376;-52
2020/12/15 03:09:19;;;;;;;54.42;29.83;;;;;;;;;;5091881;28;20032;-52
2020/12/15 03:11:45;;;;;;;54.55;30.25;;;;;;;;;;5079397;28;20310;-51
2020/12/15 03:14:11;;;;;;;54.40;29.63;;;;;;;;;;5091698;28;20575;-53
2020/12/15 03:16:37;;;;;;;52.63;27.00;;;;;;;;;;5091024;28;20402;-52
2020/12/15 03:19:03;;;;;;;48.55;26.67;;;;;;;;;;5090385;28;20046;-52
2020/12/15 03:21:30;;;;;;;47.63;26.50;;;;;;;;;;5091356;28;20468;-52
2020/12/15 03:23:57;;;;;;;46.47;25.98;;;;;;;;;;5091611;28;20124;-52
2020/12/15 03:26:23;;;;;;;43.88;25.48;;;;;;;;;;5091926;28;20476;-52
2020/12/15 03:28:49;;;;;;;43.88;24.17;;;;;;;;;;5091743;28;20032;-52
2020/12/15 03:31:15;;;;;;;43.78;24.30;;;;;;;;;;5091597;28;20024;-52
2020/12/15 03:33:42;;;;;;;40.05;22.83;;;;;;;;;;5091697;28;20020;-53
2020/12/15 03:36:08;;;;;;;41.00;20.90;;;;;;;;;;5092029;28;20476;-52
2020/12/15 03:38:34;;;;;;;40.20;20.95;;;;;;;;;;5090991;28;20106;-52
2020/12/15 03:41:00;;;;;;;39.42;21.13;;;;;;;;;;5091864;28;20017;-52
2020/12/15 03:43:26;;;;;;;40.40;21.70;;;;;;;;;;5091516;28;20046;-52
2020/12/15 03:45:52;;;;;;;41.05;22.02;;;;;;;;;;5083621;28;20059;-52
2020/12/15 03:48:18;;;;;;;40.78;22.23;;;;;;;;;;5091701;28;20035;-52
2020/12/15 03:50:45;;;;;;;42.17;21.75;;;;;;;;;;5091392;28;20024;-51
2020/12/15 03:53:11;;;;;;;38.08;21.70;;;;;;;;;;5090999;28;20048;-53
2020/12/15 03:55:37;;;;;;;41.30;23.40;;;;;;;;;;5091419;28;20064;-52
2020/12/15 03:58:03;;;;;;;41.10;23.27;;;;;;;;;;5091503;28;20035;-52
2020/12/15 04:00:29;;;;;;;45.88;23.55;;;;;;;;;;5094243;28;20094;-52
2020/12/15 04:02:55;;;;;;;41.33;23.30;;;;;;;;;;5095676;28;20053;-51
2020/12/15 04:05:21;;;;;;;45.33;24.70;;;;;;;;;;5095688;28;20032;-52
2020/12/15 04:07:48;;;;;;;45.22;23.90;;;;;;;;;;5094758;28;20027;-52
2020/12/15 04:10:17;;;;;;;49.88;25.33;;;;;;;;;;5095557;28;20036;-52
2020/12/15 04:12:43;;;;;;;47.22;26.25;;;;;;;;;;5095475;28;20016;-51
2020/12/15 04:15:10;;;;;;;46.75;25.80;;;;;;;;;;5095454;28;20111;-53
2020/12/15 04:17:36;;;;;;;46.90;26.15;;;;;;;;;;5095101;28;20024;-52
2020/12/15 04:20:03;;;;;;;49.58;27.33;;;;;;;;;;5095364;28;20021;-51
2020/12/15 04:22:29;;;;;;;51.35;28.77;;;;;;;;;;5089006;28;20123;-52
2020/12/15 04:24:55;;;;;;;52.20;28.42;;;;;;;;;;5093079;28;20036;-52
2020/12/15 04:27:21;;;;;;;47.75;26.00;;;;;;;;;;5095436;28;20395;-52
2020/12/15 04:29:47;;;;;;;47.72;24.75;;;;;;;;;;5095112;28;20468;-52
2020/12/15 04:32:14;;;;;;;47.88;26.88;;;;;;;;;;5094739;28;20032;-52
2020/12/15 04:34:40;;;;;;;48.60;27.58;;;;;;;;;;5094994;28;20024;-52
2020/12/15 04:37:06;;;;;;;51.92;29.42;;;;;;;;;;5095099;28;20426;-52
2020/12/15 04:39:32;;;;;;;55.17;29.67;;;;;;;;;;5093713;28;20028;-52
2020/12/15 04:41:58;;;;;;;57.63;31.05;;;;;;;;;;5094270;28;20073;-52
2020/12/15 04:44:25;;;;;;;56.38;31.80;;;;;;;;;;5094076;28;20563;-53
2020/12/15 04:47:05;;;;;;;54.90;31.17;;;;;;;;;;5093812;28;20016;-52
2020/12/15 04:49:37;;;;;;;58.47;32.67;;;;;;;;;;5094458;28;20028;-52
2020/12/15 04:52:05;;;;;;;61.00;32.65;;;;;;;;;;5088791;28;20502;-51
2020/12/15 04:54:32;;;;;;;63.42;34.13;;;;;;;;;;5094108;28;20067;-52
2020/12/15 04:57:02;;;;;;;63.88;33.55;;;;;;;;;;5094197;28;20489;-52
2020/12/15 04:59:32;;;;;;;63.00;34.47;;;;;;;;;;5094280;28;20020;-52
2020/12/15 05:01:59;;;;;;;61.60;34.33;;;;;;;;;;5094230;28;20103;-52
2020/12/15 05:04:25;;;;;;;61.50;33.10;;;;;;;;;;5094096;28;20387;-52
2020/12/15 05:06:54;;;;;;;66.15;35.88;;;;;;;;;;5093843;28;20123;-53
2020/12/15 05:09:29;;;;;;;62.03;34.00;;;;;;;;;;5093500;28;20024;-53
2020/12/15 05:11:55;;;;;;;59.05;32.38;;;;;;;;;;5093160;28;20016;-53
2020/12/15 05:14:21;;;;;;;57.08;32.60;;;;;;;;;;5094387;28;20028;-52
2020/12/15 05:16:47;;;;;;;69.50;36.97;;;;;;;;;;5093550;28;20016;-53
2020/12/15 05:19:13;;;;;;;66.47;37.63;;;;;;;;;;5093291;28;20381;-51
2020/12/15 05:21:39;;;;;;;70.35;38.97;;;;;;;;;;5093576;28;20475;-50
2020/12/15 05:24:09;;;;;;;120.75;60.58;;;;;;;;;;5093414;28;20052;-52
2020/12/15 05:26:35;;;;;;;125.60;65.68;;;;;;;;;;5090931;28;20035;-50
2020/12/15 05:29:01;;;;;;;98.00;50.60;;;;;;;;;;5093340;28;20069;-49
2020/12/15 05:31:28;;;;;;;88.07;46.65;;;;;;;;;;5093532;28;20028;-52
2020/12/15 05:33:54;;;;;;;89.15;49.90;;;;;;;;;;5093782;28;20379;-52
2020/12/15 05:36:21;;;;;;;88.75;48.90;;;;;;;;;;5093897;28;20089;-53
2020/12/15 05:39:00;;;;;;;80.28;42.38;;;;;;;;;;5093073;28;20032;-52
2020/12/15 05:41:26;;;;;;;82.05;43.22;;;;;;;;;;5093232;28;20027;-52
2020/12/15 05:43:52;;;;;;;80.45;41.22;;;;;;;;;;5093430;28;20028;-52
2020/12/15 05:46:21;;;;;;;77.32;40.30;;;;;;;;;;5067708;28;20395;-52
2020/12/15 05:48:49;;;;;;;68.80;36.40;;;;;;;;;;5093500;28;20471;-52
2020/12/15 05:51:15;;;;;;;69.57;36.03;;;;;;;;;;5093683;28;20035;-51
2020/12/15 05:53:41;;;;;;;82.93;42.40;;;;;;;;;;5092973;28;20052;-52
2020/12/15 05:56:07;;;;;;;75.90;39.10;;;;;;;;;;5093856;28;20106;-52
2020/12/15 05:58:33;;;;;;;75.65;38.80;;;;;;;;;;5093104;28;20054;-52
2020/12/15 06:01:09;;;;;;;72.90;37.63;;;;;;;;;;5094067;28;20016;-52
2020/12/15 06:03:35;;;;;;;73.22;37.45;;;;;;;;;;5094026;28;20044;-52
2020/12/15 06:06:02;;;;;;;74.40;37.22;;;;;;;;;;5093807;28;20016;-52
2020/12/15 06:08:29;;;;;;;73.13;38.70;;;;;;;;;;5094041;28;20020;-52
2020/12/15 06:10:55;;;;;;;76.05;39.55;;;;;;;;;;5092901;28;20016;-52
2020/12/15 06:13:21;;;;;;;76.97;38.83;;;;;;;;;;5093342;28;20072;-52
2020/12/15 06:15:47;;;;;;;73.28;37.90;;;;;;;;;;5073644;28;20447;-51
2020/12/15 06:18:13;;;;;;;68.97;36.30;;;;;;;;;;5093766;28;20039;-52
2020/12/15 06:20:40;;;;;;;70.57;37.05;;;;;;;;;;5093870;28;20047;-53
2020/12/15 06:23:12;;;;;;;74.30;37.17;;;;;;;;;;5090773;28;20077;-53
2020/12/15 06:25:39;;;;;;;74.88;36.85;;;;;;;;;;5093700;28;20394;-52
2020/12/15 06:28:08;;;;;;;73.25;37.15;;;;;;;;;;5092665;28;20024;-52
2020/12/15 06:30:35;;;;;;;79.55;38.17;;;;;;;;;;5093687;28;20024;-52
2020/12/15 06:33:02;;;;;;;74.28;37.85;;;;;;;;;;5093715;28;20491;-52
2020/12/15 06:35:28;;;;;;;116.03;59.85;;;;;;;;;;5093351;28;20012;-53
2020/12/15 06:37:54;;;;;;;89.63;47.00;;;;;;;;;;5093398;28;20118;-52
2020/12/15 06:40:20;;;;;;;81.78;42.92;;;;;;;;;;5092931;28;20016;-53
2020/12/15 06:42:54;;;;;;;81.65;43.60;;;;;;;;;;5093466;28;20383;-52
2020/12/15 06:45:21;;;;;;;170.07;99.03;;;;;;;;;;5093290;28;20038;-52
2020/12/15 06:47:56;;;;;;;149.65;83.25;;;;;;;;;;5093281;28;20103;-53
2020/12/15 06:50:22;;;;;;;195.10;103.68;;;;;;;;;;5092962;28;20035;-52
2020/12/15 06:52:48;;;;;;;136.38;74.43;;;;;;;;;;5092831;28;20043;-52
2020/12/15 06:55:14;;;;;;;113.72;60.45;;;;;;;;;;5093062;28;20035;-52
2020/12/15 06:57:40;;;;;;;104.40;54.92;;;;;;;;;;5093086;28;20020;-52
2020/12/15 07:00:08;;;;;;;95.95;49.50;;;;;;;;;;5092959;28;20028;-52
2020/12/15 07:02:34;;;;;;;95.70;51.70;;;;;;;;;;5092859;28;20023;-52
2020/12/15 07:05:19;;;;;;;162.65;101.28;;;;;;;;;;5092820;28;20031;-52
2020/12/15 07:07:48;;;;;;;122.25;69.72;;;;;;;;;;5092590;28;20130;-52
2020/12/15 07:10:14;;;;;;;91.45;49.33;;;;;;;;;;5092646;28;20020;-52
2020/12/15 07:12:41;;;;;;;94.28;52.25;;;;;;;;;;5092783;28;20076;-52
2020/12/15 07:15:08;;;;;;;92.05;52.17;;;;;;;;;;5072909;28;20016;-52
2020/12/15 07:17:34;;;;;;;93.65;50.35;;;;;;;;;;5092398;28;20024;-52
2020/12/15 07:20:01;;;;;;;81.75;42.85;;;;;;;;;;5092390;28;20050;-51
2020/12/15 07:22:27;;;;;;;84.40;43.80;;;;;;;;;;5092416;28;20036;-52
2020/12/15 07:24:53;;;;;;;85.22;44.55;;;;;;;;;;5092364;28;20036;-52
2020/12/15 07:27:20;;;;;;;87.38;47.58;;;;;;;;;;5092492;28;20046;-52
2020/12/15 07:29:55;;;;;;;123.93;66.40;;;;;;;;;;5092408;28;20024;-52
2020/12/15 07:32:21;;;;;;;109.88;57.03;;;;;;;;;;5078837;28;20471;-52
2020/12/15 07:34:47;;;;;;;103.82;55.67;;;;;;;;;;5091836;28;20138;-52
2020/12/15 07:37:20;;;;;;;98.18;53.22;;;;;;;;;;5091233;28;20016;-52
2020/12/15 07:39:46;;;;;;;112.60;63.08;;;;;;;;;;5091807;28;20112;-52
2020/12/15 07:42:13;;;;;;;86.65;45.63;;;;;;;;;;5091674;28;20020;-52
2020/12/15 07:44:39;;;;;;;87.88;45.63;;;;;;;;;;5091653;28;20491;-52
2020/12/15 07:47:05;;;;;;;80.97;43.00;;;;;;;;;;5091790;28;20029;-52
2020/12/15 07:49:31;;;;;;;88.25;43.88;;;;;;;;;;5091941;28;20073;-52
2020/12/15 07:51:57;;;;;;;77.13;37.85;;;;;;;;;;5091782;28;20023;-52
2020/12/15 07:54:23;;;;;;;66.13;35.67;;;;;;;;;;5091458;28;20050;-52
2020/12/15 07:56:52;;;;;;;58.10;31.35;;;;;;;;;;5091701;28;20040;-52
2020/12/15 07:59:19;;;;;;;55.58;29.50;;;;;;;;;;5091727;28;20086;-52
2020/12/15 08:01:45;;;;;;;47.53;26.25;;;;;;;;;;5091869;28;20155;-52
2020/12/15 08:04:12;;;;;;;59.72;32.08;;;;;;;;;;5091390;28;20074;-52
2020/12/15 08:06:41;;;;;;;56.88;31.48;;;;;;;;;;5091600;28;20028;-52
2020/12/15 08:09:07;;;;;;;53.67;29.92;;;;;;;;;;5091747;28;20085;-53
2020/12/15 08:11:34;;;;;;;53.03;29.42;;;;;;;;;;5091654;28;20028;-52
2020/12/15 08:14:01;;;;;;;54.08;28.67;;;;;;;;;;5091402;28;20032;-52
2020/12/15 08:16:27;;;;;;;54.15;29.90;;;;;;;;;;5091598;28;20048;-52
2020/12/15 08:18:59;;;;;;;48.35;27.92;;;;;;;;;;5091684;28;20062;-53
2020/12/15 08:21:37;;;;;;;59.17;32.67;;;;;;;;;;5091423;28;20035;-52
2020/12/15 08:24:05;;;;;;;61.78;33.15;;;;;;;;;;5091920;28;20040;-51
2020/12/15 08:26:32;;;;;;;55.38;31.48;;;;;;;;;;5091616;28;20033;-52
2020/12/15 08:29:07;;;;;;;53.42;30.60;;;;;;;;;;5091746;28;20093;-52
2020/12/15 08:31:34;;;;;;;56.30;31.25;;;;;;;;;;5091657;28;20096;-52
2020/12/15 08:34:00;;;;;;;51.38;28.33;;;;;;;;;;5091605;28;20141;-52
2020/12/15 08:36:26;;;;;;;50.88;27.35;;;;;;;;;;5091237;28;20067;-52
2020/12/15 08:38:54;;;;;;;58.22;29.60;;;;;;;;;;5091636;28;20016;-52
2020/12/15 08:41:20;;;;;;;57.40;31.15;;;;;;;;;;5091330;28;20035;-52
2020/12/15 08:43:49;;;;;;;57.85;31.42;;;;;;;;;;5091457;28;20481;-53
2020/12/15 08:46:16;;;;;;;56.65;29.45;;;;;;;;;;5092043;28;20031;-52
2020/12/15 08:48:42;;;;;;;51.00;27.95;;;;;;;;;;5095218;28;20024;-52
2020/12/15 08:51:13;;;;;;;62.42;32.33;;;;;;;;;;5095461;28;20422;-51
2020/12/15 08:53:39;;;;;;;59.42;30.88;;;;;;;;;;5094488;28;20055;-52
2020/12/15 08:56:12;;;;;;;67.65;36.17;;;;;;;;;;5095419;28;20502;-49
2020/12/15 08:58:38;;;;;;;65.00;34.53;;;;;;;;;;5095100;28;20395;-52
2020/12/15 09:01:04;;;;;;;54.97;29.88;;;;;;;;;;5095082;28;20079;-52
2020/12/15 09:03:34;;;;;;;53.95;29.15;;;;;;;;;;5095246;28;20020;-52
2020/12/15 09:06:00;;;;;;;54.67;29.67;;;;;;;;;;5095087;28;20454;-52
2020/12/15 09:08:27;;;;;;;79.90;41.88;;;;;;;;;;5095250;28;20422;-52
2020/12/15 09:10:54;;;;;;;64.97;34.20;;;;;;;;;;5094461;28;20061;-52
2020/12/15 09:13:20;;;;;;;64.28;36.03;;;;;;;;;;5095143;28;20516;-51
2020/12/15 09:15:50;;;;;;;59.45;33.72;;;;;;;;;;5094099;28;20024;-54
2020/12/15 09:18:17;;;;;;;66.60;36.60;;;;;;;;;;5094565;28;20020;-52
2020/12/15 09:20:43;;;;;;;65.47;35.53;;;;;;;;;;5094674;28;20024;-52
2020/12/15 09:23:10;;;;;;;72.50;37.92;;;;;;;;;;5094528;28;20454;-53
2020/12/15 09:25:36;;;;;;;115.65;61.33;;;;;;;;;;5094555;28;20059;-53
2020/12/15 09:28:02;;;;;;;83.43;46.15;;;;;;;;;;5094455;28;20028;-53
2020/12/15 09:30:28;;;;;;;55.53;30.15;;;;;;;;;;5094483;28;20031;-53
2020/12/15 09:32:54;;;;;;;46.25;26.42;;;;;;;;;;5094509;28;20024;-52
2020/12/15 09:35:21;;;;;;;52.25;27.90;;;;;;;;;;5094370;28;20028;-53
2020/12/15 09:37:47;;;;;;;48.35;28.83;;;;;;;;;;5094553;28;20390;-53
2020/12/15 09:40:13;;;;;;;55.15;28.83;;;;;;;;;;5094244;28;20020;-52
2020/12/15 09:42:43;;;;;;;61.22;33.40;;;;;;;;;;5094236;28;20016;-53
2020/12/15 09:45:10;;;;;;;60.58;32.97;;;;;;;;;;5093843;28;20476;-53
2020/12/15 09:47:40;;;;;;;55.95;31.52;;;;;;;;;;5094262;28;20031;-53
2020/12/15 09:50:06;;;;;;;57.67;32.50;;;;;;;;;;5093965;28;20030;-53
2020/12/15 09:52:32;;;;;;;62.95;33.13;;;;;;;;;;5093518;28;20028;-53
2020/12/15 09:54:58;;;;;;;52.92;29.60;;;;;;;;;;5094106;28;20051;-53
2020/12/15 09:57:25;;;;;;;58.40;32.63;;;;;;;;;;5092835;28;20069;-53
2020/12/15 09:59:51;;;;;;;55.40;31.02;;;;;;;;;;5093470;28;20099;-53
2020/12/15 10:02:17;;;;;;;66.25;37.25;;;;;;;;;;5093744;28;20479;-53
2020/12/15 10:04:43;;;;;;;63.13;34.55;;;;;;;;;;5092890;28;20131;-53
2020/12/15 10:07:09;;;;;;;68.28;37.45;;;;;;;;;;5092753;28;20024;-53
2020/12/15 10:09:35;;;;;;;60.53;33.03;;;;;;;;;;5093964;28;20035;-52
2020/12/15 10:12:01;;;;;;;56.67;32.40;;;;;;;;;;5093446;28;20027;-53
2020/12/15 10:14:27;;;;;;;58.28;33.20;;;;;;;;;;5093298;28;20028;-52
2020/12/15 10:16:53;;;;;;;45.80;26.30;;;;;;;;;;5093055;28;20034;-53
2020/12/15 10:19:19;;;;;;;48.15;28.40;;;;;;;;;;5093102;28;20024;-51
2020/12/15 10:21:45;;;;;;;60.72;33.85;;;;;;;;;;5093607;28;20020;-52
2020/12/15 10:24:12;;;;;;;60.22;33.08;;;;;;;;;;5093318;28;20040;-53
2020/12/15 10:26:38;;;;;;;59.95;33.45;;;;;;;;;;5093257;28;20024;-53
2020/12/15 10:29:04;;;;;;;52.40;29.45;;;;;;;;;;5093353;28;20061;-53
2020/12/15 10:31:30;;;;;;;50.17;27.90;;;;;;;;;;5093562;28;20031;-53
2020/12/15 10:33:56;;;;;;;44.25;25.77;;;;;;;;;;5093334;28;20020;-53
2020/12/15 10:36:22;;;;;;;55.40;31.05;;;;;;;;;;5093421;28;20016;-53
2020/12/15 10:38:48;;;;;;;47.47;27.48;;;;;;;;;;5093456;28;20380;-52
2020/12/15 10:41:14;;;;;;;47.38;27.65;;;;;;;;;;5093187;28;20543;-53
2020/12/15 10:43:40;;;;;;;54.72;30.13;;;;;;;;;;5093022;28;20050;-53
2020/12/15 10:46:06;;;;;;;60.42;32.05;;;;;;;;;;5092897;28;20386;-53
2020/12/15 10:48:33;;;;;;;63.95;29.92;;;;;;;;;;5093087;28;20535;-53
2020/12/15 10:50:59;;;;;;;47.17;26.70;;;;;;;;;;5093327;28;20407;-53
2020/12/15 10:53:25;;;;;;;52.92;30.17;;;;;;;;;;5092570;28;20040;-54
2020/12/15 10:55:51;;;;;;;52.55;30.35;;;;;;;;;;5093204;28;20035;-53
2020/12/15 10:58:18;;;;;;;53.65;30.33;;;;;;;;;;5092964;28;20488;-53
2020/12/15 11:00:44;;;;;;;59.28;32.90;;;;;;;;;;5092623;28;20020;-52
2020/12/15 11:03:10;;;;;;;45.40;26.52;;;;;;;;;;5093124;28;20020;-53
2020/12/15 11:05:36;;;;;;;43.78;25.15;;;;;;;;;;5092806;28;20028;-53
2020/12/15 11:08:03;;;;;;;43.58;25.20;;;;;;;;;;5092889;28;20031;-50
2020/12/15 11:10:29;;;;;;;44.88;25.05;;;;;;;;;;5091992;28;20028;-53
2020/12/15 11:12:55;;;;;;;45.50;25.88;;;;;;;;;;5092796;28;20051;-52
2020/12/15 11:15:21;;;;;;;56.42;32.35;;;;;;;;;;5092531;28;20047;-51
2020/12/15 11:17:47;;;;;;;51.05;29.05;;;;;;;;;;5092523;28;20064;-50
2020/12/15 11:20:13;;;;;;;50.22;28.23;;;;;;;;;;5092534;28;20038;-52
2020/12/15 11:22:40;;;;;;;51.97;28.92;;;;;;;;;;5092398;28;20043;-53
2020/12/15 11:25:06;;;;;;;65.28;35.55;;;;;;;;;;5091963;28;20051;-52
2020/12/15 11:27:32;;;;;;;67.95;38.25;;;;;;;;;;5092598;28;20020;-53
2020/12/15 11:29:58;;;;;;;59.22;33.83;;;;;;;;;;5092319;28;20028;-50
2020/12/15 11:32:24;;;;;;;61.17;33.13;;;;;;;;;;5092247;28;20062;-52
2020/12/15 11:34:50;;;;;;;61.47;33.03;;;;;;;;;;5092194;28;20027;-52
2020/12/15 11:37:16;;;;;;;80.63;40.92;;;;;;;;;;5092307;28;20031;-53
2020/12/15 11:39:42;;;;;;;54.00;31.25;;;;;;;;;;5092343;28;20031;-52
2020/12/15 11:42:10;;;;;;;49.00;29.73;;;;;;;;;;5092179;28;20028;-54
2020/12/15 11:44:37;;;;;;;59.78;33.88;;;;;;;;;;5092296;28;20039;-53
2020/12/15 11:47:03;;;;;;;61.47;34.50;;;;;;;;;;5092135;28;20545;-53
2020/12/15 11:49:29;;;;;;;67.78;36.53;;;;;;;;;;5092336;28;20107;-53
2020/12/15 11:51:56;;;;;;;60.47;34.70;;;;;;;;;;5090618;28;20089;-50
2020/12/15 11:54:22;;;;;;;65.53;35.45;;;;;;;;;;5091295;28;20067;-50
2020/12/15 11:56:50;;;;;;;60.75;34.90;;;;;;;;;;5091357;28;20020;-54
2020/12/15 11:59:16;;;;;;;97.53;51.22;;;;;;;;;;5091445;28;20392;-53
2020/12/15 12:01:42;;;;;;;77.75;40.88;;;;;;;;;;5090686;28;20020;-53
2020/12/15 12:04:08;;;;;;;63.25;35.13;;;;;;;;;;5091513;28;20390;-52
2020/12/15 12:06:35;;;;;;;77.25;43.40;;;;;;;;;;5091218;28;20526;-52
2020/12/15 12:09:01;;;;;;;59.65;34.22;;;;;;;;;;5087966;28;20051;-52
2020/12/15 12:11:28;;;;;;;57.90;33.42;;;;;;;;;;5091628;28;20021;-52
2020/12/15 12:13:54;;;;;;;52.50;30.42;;;;;;;;;;5090661;28;20107;-51
2020/12/15 12:16:20;;;;;;;58.42;32.22;;;;;;;;;;5090733;28;20022;-51
2020/12/15 12:18:46;;;;;;;59.42;34.28;;;;;;;;;;5090555;28;20024;-50
2020/12/15 12:21:12;;;;;;;58.67;33.10;;;;;;;;;;5092675;28;20069;-51
2020/12/15 12:23:39;;;;;;;63.75;36.20;;;;;;;;;;5094607;28;20113;-51
2020/12/15 12:26:05;;;;;;;54.35;30.90;;;;;;;;;;5094767;28;20017;-49
2020/12/15 12:28:32;;;;;;;52.15;30.80;;;;;;;;;;5094577;28;20087;-51
2020/12/15 12:30:58;;;;;;;49.95;28.70;;;;;;;;;;5095078;28;20055;-53
2020/12/15 12:33:24;;;;;;;48.00;29.25;;;;;;;;;;5093277;28;20016;-50
2020/12/15 12:35:53;;;;;;;53.42;31.60;;;;;;;;;;5095137;28;20517;-51
2020/12/15 12:38:22;;;;;;;45.92;27.27;;;;;;;;;;5094859;28;20032;-51
2020/12/15 12:40:49;;;;;;;51.15;31.00;;;;;;;;;;5094728;28;20024;-53
2020/12/15 12:43:16;;;;;;;59.72;34.20;;;;;;;;;;5094472;28;20024;-50
2020/12/15 12:45:43;;;;;;;59.35;34.95;;;;;;;;;;5094666;28;20467;-52
2020/12/15 12:48:10;;;;;;;50.72;32.63;;;;;;;;;;5094963;28;20050;-49
2020/12/15 12:50:36;;;;;;;67.00;37.88;;;;;;;;;;5091940;28;20027;-51
2020/12/15 12:53:02;;;;;;;65.32;41.30;;;;;;;;;;5094321;28;20040;-52
2020/12/15 12:55:28;;;;;;;63.15;38.10;;;;;;;;;;5093801;28;20067;-51
2020/12/15 12:57:55;;;;;;;71.70;43.28;;;;;;;;;;5093468;28;20020;-51
2020/12/15 13:00:22;;;;;;;103.43;54.20;;;;;;;;;;5094010;28;20052;-52
2020/12/15 13:02:48;;;;;;;72.50;39.90;;;;;;;;;;5081740;28;20376;-50
2020/12/15 13:05:14;;;;;;;67.22;35.83;;;;;;;;;;5076949;28;20028;-52
2020/12/15 13:07:42;;;;;;;57.95;33.63;;;;;;;;;;5074200;28;20016;-52
2020/12/15 13:10:08;;;;;;;55.15;33.25;;;;;;;;;;5073958;28;20040;-52
2020/12/15 13:12:34;;;;;;;235.85;139.38;;;;;;;;;;5073376;28;20028;-51
2020/12/15 13:15:01;;;;;;;68.03;41.88;;;;;;;;;;5086811;28;20026;-53
2020/12/15 13:17:27;;;;;;;66.07;41.80;;;;;;;;;;5094101;28;20103;-52
2020/12/15 13:19:53;;;;;;;60.72;38.58;;;;;;;;;;5087951;28;20074;-52
2020/12/15 13:22:19;;;;;;;75.18;44.63;;;;;;;;;;5077438;28;20103;-52
2020/12/15 13:24:45;;;;;;;74.20;44.00;;;;;;;;;;5082818;28;20380;-52
2020/12/15 13:27:11;;;;;;;106.20;66.32;;;;;;;;;;5075401;28;20435;-49
2020/12/15 13:29:37;;;;;;;52.25;31.88;;;;;;;;;;5094537;28;20383;-52
2020/12/15 13:32:04;;;;;;;46.80;29.08;;;;;;;;;;5093307;28;20111;-53
2020/12/15 13:34:30;;;;;;;64.47;37.45;;;;;;;;;;5094171;28;20016;-53
2020/12/15 13:36:56;;;;;;;51.13;30.02;;;;;;;;;;5093652;28;20020;-53
2020/12/15 13:39:23;;;;;;;107.60;57.53;;;;;;;;;;5093833;28;20017;-52
2020/12/15 13:41:49;;;;;;;120.50;68.68;;;;;;;;;;5093213;28;20061;-51
2020/12/15 13:44:15;;;;;;;122.78;68.80;;;;;;;;;;5093301;28;20059;-51
2020/12/15 13:46:42;;;;;;;81.32;47.67;;;;;;;;;;5086171;28;20472;-52
2020/12/15 13:49:08;;;;;;;85.95;47.22;;;;;;;;;;5075195;28;20430;-53
2020/12/15 13:51:40;;;;;;;53.28;31.20;;;;;;;;;;5076769;28;20029;-54
2020/12/15 13:54:06;;;;;;;;;;;;;;;;;;5080632;28;20055;-52
2020/12/15 13:56:32;;;;;;;79.82;45.38;;;;;;;;;;5075029;28;19915;-51
2020/12/15 13:58:58;;;;;;;67.95;36.78;;;;;;;;;;5073923;28;20028;-50
2020/12/15 14:01:24;;;;;;;68.53;39.03;;;;;;;;;;5075162;28;20024;-52
2020/12/15 14:03:50;;;;;;;58.95;33.67;;;;;;;;;;5092832;28;20077;-52
2020/12/15 14:06:20;;;;;;;56.80;31.75;;;;;;;;;;5091022;28;20020;-51
2020/12/15 14:08:46;;;;;;;59.10;33.55;;;;;;;;;;5092527;28;20028;-51
2020/12/15 14:11:16;;;;;;;95.20;53.05;;;;;;;;;;5093027;28;20115;-51
2020/12/15 14:13:43;;;;;;;83.75;47.45;;;;;;;;;;5092143;28;20099;-52